createdAt,value
2018-05-15T00:02:07.094Z,99921
2018-05-15T00:04:33.180Z,99933
2018-05-15T00:07:00.005Z,99928
2018-05-15T00:09:26.084Z,99920
2018-05-15T00:11:52.922Z,99918
2018-05-15T00:14:19.750Z,99921
2018-05-15T00:16:46.586Z,99927
2018-05-15T00:19:12.662Z,99922
2018-05-15T00:21:38.754Z,99915
2018-05-15T00:24:05.582Z,99912
2018-05-15T00:26:31.739Z,99918
2018-05-15T00:28:57.760Z,99919
2018-05-15T00:31:23.855Z,99913
2018-05-15T00:33:49.942Z,99923
2018-05-15T00:36:16.038Z,99929
2018-05-15T00:38:42.130Z,99934
2018-05-15T00:41:08.213Z,99931
2018-05-15T00:43:35.279Z,99934
2018-05-15T00:46:01.377Z,99924
2018-05-15T00:48:27.472Z,99919
2018-05-15T00:50:54.296Z,99916
2018-05-15T00:53:20.391Z,99922
2018-05-15T00:55:46.493Z,99916
2018-05-15T00:58:12.618Z,99914
2018-05-15T01:00:38.706Z,99908
2018-05-15T01:03:04.819Z,99910
2018-05-15T01:05:30.918Z,99910
2018-05-15T01:07:57.020Z,99902
2018-05-15T01:10:23.109Z,99900
2018-05-15T01:12:49.219Z,99901
2018-05-15T01:15:15.322Z,99905
2018-05-15T01:17:41.428Z,99905
2018-05-15T01:20:07.533Z,99911
2018-05-15T01:22:34.388Z,99905
2018-05-15T01:25:00.477Z,99896
2018-05-15T01:27:26.578Z,99895
2018-05-15T01:29:52.661Z,99900
2018-05-15T01:32:18.770Z,99890
2018-05-15T01:34:45.614Z,99895
2018-05-15T01:37:12.461Z,99892
2018-05-15T01:39:39.301Z,99891
2018-05-15T01:42:06.150Z,99903
2018-05-15T01:44:32.988Z,99898
2018-05-15T01:46:59.829Z,99892
2018-05-15T01:49:26.677Z,99895
2018-05-15T01:51:53.517Z,99894
2018-05-15T01:54:20.357Z,99880
2018-05-15T01:56:48.631Z,99890
2018-05-15T01:59:14.713Z,99892
2018-05-15T02:01:40.803Z,99893
2018-05-15T02:04:06.898Z,99894
2018-05-15T02:06:32.986Z,99884
2018-05-15T02:08:59.086Z,99877
2018-05-15T02:11:25.173Z,99889
2018-05-15T02:13:51.263Z,99891
2018-05-15T02:16:17.352Z,99891
2018-05-15T02:18:44.172Z,99893
2018-05-15T02:21:10.276Z,99888
2018-05-15T02:23:37.105Z,99892
2018-05-15T02:26:03.190Z,99888
2018-05-15T02:28:30.017Z,99887
2018-05-15T02:30:56.837Z,99883
2018-05-15T02:33:22.917Z,99896
2018-05-15T02:35:48.997Z,99889
2018-05-15T02:38:15.085Z,99892
2018-05-15T02:40:41.165Z,99890
2018-05-15T02:43:08.801Z,99871
2018-05-15T02:45:34.890Z,99878
2018-05-15T02:48:00.968Z,99885
2018-05-15T02:50:27.045Z,99885
2018-05-15T02:52:53.125Z,99894
2018-05-15T02:55:19.984Z,99886
2018-05-15T02:57:46.087Z,99885
2018-05-15T03:00:12.184Z,99887
2018-05-15T03:02:38.273Z,99893
2018-05-15T03:05:04.364Z,99883
2018-05-15T03:07:30.469Z,99880
2018-05-15T03:09:56.583Z,99882
2018-05-15T03:12:22.683Z,99881
2018-05-15T03:14:48.794Z,99883
2018-05-15T03:17:14.898Z,99885
2018-05-15T03:19:41.791Z,99885
2018-05-15T03:22:07.894Z,99884
2018-05-15T03:24:34.000Z,99885
2018-05-15T03:27:00.833Z,99889
2018-05-15T03:29:26.931Z,99893
2018-05-15T03:31:53.030Z,99881
2018-05-15T03:34:22.070Z,99885
2018-05-15T03:36:48.165Z,99893
2018-05-15T03:39:14.271Z,99881
2018-05-15T03:41:40.362Z,99894
2018-05-15T03:44:07.213Z,99895
2018-05-15T03:46:34.061Z,99881
2018-05-15T03:49:00.897Z,99888
2018-05-15T03:51:27.745Z,99893
2018-05-15T03:53:54.582Z,99900
2018-05-15T03:56:21.431Z,99896
2018-05-15T03:58:48.253Z,99900
2018-05-15T04:01:33.124Z,99895
2018-05-15T04:04:17.849Z,99896
2018-05-15T04:07:03.165Z,99904
2018-05-15T04:09:29.249Z,99911
2018-05-15T04:11:55.336Z,99904
2018-05-15T04:14:22.193Z,99911
2018-05-15T04:16:48.273Z,99913
2018-05-15T04:19:14.358Z,99921
2018-05-15T04:21:40.440Z,99929
2018-05-15T04:24:06.512Z,99914
2018-05-15T04:26:32.606Z,99919
2018-05-15T04:28:59.425Z,99914
2018-05-15T04:31:25.510Z,99927
2018-05-15T04:33:51.592Z,99927
2018-05-15T04:36:18.417Z,99916
2018-05-15T04:38:44.511Z,99927
2018-05-15T04:41:10.596Z,99931
2018-05-15T04:43:36.792Z,99919
2018-05-15T04:46:02.769Z,99930
2018-05-15T04:48:28.842Z,99928
2018-05-15T04:50:54.926Z,99925
2018-05-15T04:53:21.005Z,99934
2018-05-15T04:55:47.858Z,99934
2018-05-15T04:58:14.711Z,99941
2018-05-15T05:00:40.803Z,99936
2018-05-15T05:03:08.235Z,99945
2018-05-15T05:05:34.335Z,99936
2018-05-15T05:08:00.425Z,99940
2018-05-15T05:10:27.262Z,99935
2018-05-15T05:12:53.360Z,99939
2018-05-15T05:15:19.452Z,99929
2018-05-15T05:17:45.552Z,99939
2018-05-15T05:20:12.394Z,99931
2018-05-15T05:22:40.237Z,99919
2018-05-15T05:25:06.317Z,99944
2018-05-15T05:27:32.413Z,99941
2018-05-15T05:29:58.518Z,99936
2018-05-15T05:32:24.618Z,99949
2018-05-15T05:34:50.709Z,99938
2018-05-15T05:37:16.814Z,99941
2018-05-15T05:39:43.658Z,99937
2018-05-15T05:42:10.510Z,99941
2018-05-15T05:44:37.336Z,99944
2018-05-15T05:47:03.421Z,99933
2018-05-15T05:49:29.515Z,99930
2018-05-15T05:51:55.671Z,99932
2018-05-15T05:54:21.742Z,99935
2018-05-15T05:56:48.593Z,99938
2018-05-15T05:59:15.434Z,99934
2018-05-15T06:01:42.322Z,99932
2018-05-15T06:04:08.424Z,99923
2018-05-15T06:06:34.514Z,99903
2018-05-15T06:09:00.618Z,99918
2018-05-15T06:11:26.719Z,99914
2018-05-15T06:13:52.863Z,99911
2018-05-15T06:16:18.962Z,99916
2018-05-15T06:18:45.064Z,99908
2018-05-15T06:21:11.896Z,99922
2018-05-15T06:23:38.733Z,99903
2018-05-15T06:26:04.827Z,99923
2018-05-15T06:28:30.931Z,99902
2018-05-15T06:30:57.036Z,99888
2018-05-15T06:33:23.140Z,99898
2018-05-15T06:35:49.973Z,99934
2018-05-15T06:38:16.066Z,99867
2018-05-15T06:40:42.159Z,99851
2018-05-15T06:43:08.257Z,99858
2018-05-15T06:45:34.351Z,99842
2018-05-15T06:48:00.456Z,99835
2018-05-15T06:50:26.557Z,99844
2018-05-15T06:52:52.659Z,99853
2018-05-15T06:55:18.779Z,99832
2018-05-15T06:57:44.882Z,99837
2018-05-15T07:00:10.999Z,99795
2018-05-15T07:02:37.106Z,99778
2018-05-15T07:05:03.196Z,99832
2018-05-15T07:07:30.033Z,99846
2018-05-15T07:09:56.135Z,99868
2018-05-15T07:12:22.233Z,99872
2018-05-15T07:14:48.341Z,99871
2018-05-15T07:17:14.438Z,99872
2018-05-15T07:19:40.547Z,99879
2018-05-15T07:22:06.650Z,99911
2018-05-15T07:24:32.760Z,99886
2018-05-15T07:26:58.858Z,99909
2018-05-15T07:29:25.706Z,99831
2018-05-15T07:31:51.802Z,99909
2018-05-15T07:34:17.906Z,99932
2018-05-15T07:36:44.027Z,99915
2018-05-15T07:39:10.137Z,99932
2018-05-15T07:41:36.222Z,99946
2018-05-15T07:44:03.057Z,99938
2018-05-15T07:46:29.141Z,99936
2018-05-15T07:48:55.236Z,99929
2018-05-15T07:51:21.341Z,99937
2018-05-15T07:53:48.189Z,99934
2018-05-15T07:56:15.058Z,99941
2018-05-15T07:58:41.154Z,99930
2018-05-15T08:01:07.988Z,99933
2018-05-15T08:03:34.081Z,99928
2018-05-15T08:06:00.176Z,99927
2018-05-15T08:08:26.269Z,99943
2018-05-15T08:10:52.948Z,99934
2018-05-15T08:13:19.067Z,99932
2018-05-15T08:15:45.181Z,99927
2018-05-15T08:18:11.269Z,99922
2018-05-15T08:20:37.395Z,99926
2018-05-15T08:23:03.493Z,99908
2018-05-15T08:25:29.605Z,99917
2018-05-15T08:27:55.712Z,99917
2018-05-15T08:30:21.817Z,99918
2018-05-15T08:32:48.650Z,99912
2018-05-15T08:35:14.754Z,99911
2018-05-15T08:37:40.906Z,99913
2018-05-15T08:40:06.991Z,99916
2018-05-15T08:42:33.098Z,99916
2018-05-15T08:44:59.205Z,99914
2018-05-15T08:47:26.042Z,99916
2018-05-15T08:49:52.162Z,99919
2018-05-15T08:52:19.000Z,99926
2018-05-15T08:54:45.090Z,99913
2018-05-15T08:57:11.192Z,99918
2018-05-15T08:59:37.272Z,99927
2018-05-15T09:02:03.345Z,99912
2018-05-15T09:04:29.442Z,99905
2018-05-15T09:06:55.537Z,99932
2018-05-15T09:09:21.628Z,99926
2018-05-15T09:11:47.721Z,99929
2018-05-15T09:14:14.536Z,99927
2018-05-15T09:16:40.626Z,99932
2018-05-15T09:19:06.772Z,99922
2018-05-15T09:21:32.854Z,99919
2018-05-15T09:23:58.933Z,99921
2018-05-15T09:26:25.031Z,99912
2018-05-15T09:28:51.113Z,99906
2018-05-15T09:31:17.940Z,99912
2018-05-15T09:33:44.017Z,99906
2018-05-15T09:36:10.109Z,99907
2018-05-15T09:38:36.933Z,99912
2018-05-15T09:41:03.016Z,99912
2018-05-15T09:46:32.848Z,99914
2018-05-15T09:48:58.938Z,99914
2018-05-15T09:51:25.765Z,99912
2018-05-15T09:53:51.851Z,99917
2018-05-15T09:56:17.962Z,99901
2018-05-15T09:58:44.040Z,99910
2018-05-15T10:01:10.126Z,99907
2018-05-15T10:03:36.233Z,99911
2018-05-15T10:06:02.317Z,99902
2018-05-15T10:08:28.414Z,99907
2018-05-15T10:11:05.993Z,99915
2018-05-15T10:13:32.076Z,99902
2018-05-15T10:15:58.897Z,99906
2018-05-15T10:18:24.976Z,99899
2018-05-15T10:20:51.057Z,99887
2018-05-15T10:23:17.149Z,99878
2018-05-15T10:25:43.238Z,99874
2018-05-15T10:28:09.341Z,99878
2018-05-15T10:30:36.165Z,99874
2018-05-15T10:33:02.261Z,99878
2018-05-15T10:35:28.349Z,99875
2018-05-15T10:37:54.441Z,99866
2018-05-15T10:40:20.522Z,99868
2018-05-15T10:42:46.620Z,99859
2018-05-15T10:45:12.701Z,99857
2018-05-15T10:47:38.786Z,99850
2018-05-15T10:50:04.886Z,99852
2018-05-15T10:52:31.723Z,99851
2018-05-15T10:54:58.553Z,99857
2018-05-15T10:57:24.645Z,99842
2018-05-15T10:59:50.725Z,99850
2018-05-15T11:02:17.581Z,99845
2018-05-15T11:04:44.410Z,99844
2018-05-15T11:07:11.247Z,99843
2018-05-15T11:09:38.073Z,99861
2018-05-15T11:12:04.153Z,99885
2018-05-15T11:14:30.236Z,99866
2018-05-15T11:16:56.317Z,99855
2018-05-15T11:19:41.223Z,99863
2018-05-15T11:22:25.959Z,99860
2018-05-15T11:24:52.048Z,99856
2018-05-15T11:27:18.123Z,99852
2018-05-15T11:29:44.212Z,99859
2018-05-15T11:32:10.285Z,99850
2018-05-15T11:34:36.374Z,99857
2018-05-15T11:37:02.445Z,99845
2018-05-15T11:39:29.273Z,99842
2018-05-15T11:41:55.393Z,99840
2018-05-15T11:44:22.217Z,99853
2018-05-15T11:46:48.318Z,99849
2018-05-15T11:49:14.942Z,99854
2018-05-15T11:51:40.915Z,99854
2018-05-15T11:54:08.055Z,99844
2018-05-15T11:56:34.201Z,99850
2018-05-15T11:59:00.268Z,99834
2018-05-15T12:01:26.345Z,99838
2018-05-15T12:03:52.522Z,99825
2018-05-15T12:06:18.593Z,99820
2018-05-15T12:08:45.365Z,99820
2018-05-15T12:11:11.449Z,99819
2018-05-15T12:13:37.556Z,99810
2018-05-15T12:16:03.706Z,99802
2018-05-15T12:18:30.556Z,99803
2018-05-15T12:20:56.560Z,99799
2018-05-15T12:23:22.642Z,99791
2018-05-15T12:25:49.465Z,99806
2018-05-15T12:28:15.554Z,99799
2018-05-15T12:30:41.672Z,99801
2018-05-15T12:33:07.766Z,99806
2018-05-15T12:35:34.593Z,99804
2018-05-15T12:38:01.303Z,99804
2018-05-15T12:40:27.393Z,99823
2018-05-15T12:42:53.485Z,99808
2018-05-15T12:45:19.586Z,99826
2018-05-15T12:47:45.702Z,99826
2018-05-15T12:50:11.781Z,99822
2018-05-15T12:52:38.601Z,99822
2018-05-15T12:55:04.699Z,99825
2018-05-15T12:57:30.785Z,99820
2018-05-15T12:59:56.953Z,99817
2018-05-15T13:02:23.034Z,99813
2018-05-15T13:04:49.751Z,99819
2018-05-15T13:07:15.843Z,99810
2018-05-15T13:09:49.946Z,99806
2018-05-15T13:12:16.055Z,99817
2018-05-15T13:14:42.195Z,99803
2018-05-15T13:17:08.285Z,99797
2018-05-15T13:19:35.125Z,99792
2018-05-15T13:22:01.970Z,99799
2018-05-15T13:24:28.816Z,99791
2018-05-15T13:26:55.740Z,99788
2018-05-15T13:29:21.821Z,99785
2018-05-15T13:31:47.922Z,99782
2018-05-15T13:34:14.001Z,99767
2018-05-15T13:36:40.094Z,99781
2018-05-15T13:39:06.183Z,99778
2018-05-15T13:41:33.018Z,99777
2018-05-15T13:43:59.851Z,99771
2018-05-15T13:46:25.954Z,99760
2018-05-15T13:48:52.025Z,99760
2018-05-15T13:51:18.127Z,99758
2018-05-15T13:53:44.204Z,99755
2018-05-15T13:56:10.291Z,99758
2018-05-15T13:58:37.109Z,99757
2018-05-15T14:01:03.215Z,99750
2018-05-15T14:03:29.314Z,99746
2018-05-15T14:05:55.408Z,99743
2018-05-15T14:08:22.232Z,99747
2018-05-15T14:10:48.319Z,99747
2018-05-15T14:13:14.416Z,99752
2018-05-15T14:15:40.493Z,99741
2018-05-15T14:18:06.578Z,99741
2018-05-15T14:20:32.657Z,99740
2018-05-15T14:22:58.746Z,99736
2018-05-15T14:25:24.902Z,99736
2018-05-15T14:27:51.672Z,99730
2018-05-15T14:30:18.512Z,99721
2018-05-15T14:32:45.346Z,99725
2018-05-15T14:35:12.285Z,99722
2018-05-15T14:37:38.393Z,99723
2018-05-15T14:40:04.473Z,99732
2018-05-15T14:42:49.397Z,99708
2018-05-15T14:45:26.046Z,99703
2018-05-15T14:47:52.181Z,99705
2018-05-15T14:50:18.266Z,99717
2018-05-15T14:52:44.370Z,99712
2018-05-15T14:55:11.207Z,99708
2018-05-15T14:57:37.302Z,99706
2018-05-15T15:03:04.126Z,99703
2018-05-15T15:05:30.210Z,99710
2018-05-15T15:07:56.354Z,99712
2018-05-15T15:10:23.185Z,99704
2018-05-15T15:12:49.274Z,99714
2018-05-15T15:15:15.357Z,99724
2018-05-15T15:17:42.197Z,99725
2018-05-15T15:20:09.025Z,99715
2018-05-15T15:22:35.107Z,99699
2018-05-15T15:25:01.210Z,99700
2018-05-15T15:27:27.289Z,99702
2018-05-15T15:29:53.374Z,99694
2018-05-15T15:32:19.458Z,99701
2018-05-15T15:34:45.545Z,99692
2018-05-15T15:37:11.617Z,99686
2018-05-15T15:39:38.450Z,99682
2018-05-15T15:42:04.529Z,99676
2018-05-15T15:44:30.630Z,99690
2018-05-15T15:46:56.719Z,99676
2018-05-15T15:49:22.811Z,99683
2018-05-15T15:51:48.885Z,99682
2018-05-15T15:54:15.721Z,99675
2018-05-15T15:56:41.805Z,99671
2018-05-15T15:59:07.899Z,99678
2018-05-15T16:01:33.969Z,99673
2018-05-15T16:04:00.141Z,99685
2018-05-15T16:06:26.181Z,99688
2018-05-15T16:08:52.270Z,99681
2018-05-15T16:11:18.349Z,99679
2018-05-15T16:13:44.441Z,99682
2018-05-15T16:16:11.269Z,99675
2018-05-15T16:18:38.909Z,99675
2018-05-15T16:21:05.008Z,99675
2018-05-15T16:23:31.093Z,99675
2018-05-15T16:25:57.928Z,99664
2018-05-15T16:28:24.015Z,99664
2018-05-15T16:30:50.100Z,99665
2018-05-15T16:33:16.931Z,99663
2018-05-15T16:35:43.773Z,99662
2018-05-15T16:38:10.597Z,99656
2018-05-15T16:40:36.679Z,99660
2018-05-15T16:43:02.765Z,99666
2018-05-15T16:45:29.611Z,99658
2018-05-15T16:47:56.434Z,99653
2018-05-15T16:50:22.530Z,99653
2018-05-15T16:52:48.609Z,99654
2018-05-15T16:55:15.461Z,99655
2018-05-15T16:57:41.557Z,99654
2018-05-15T17:00:07.642Z,99649
2018-05-15T17:02:33.721Z,99644
2018-05-15T17:05:00.554Z,99645
2018-05-15T17:07:26.639Z,99641
2018-05-15T17:09:52.738Z,99650
2018-05-15T17:12:18.821Z,99638
2018-05-15T17:14:44.928Z,99646
2018-05-15T17:17:11.017Z,99638
2018-05-15T17:19:37.100Z,99637
2018-05-15T17:22:03.177Z,99636
2018-05-15T17:24:29.260Z,99629
2018-05-15T17:26:55.983Z,99632
2018-05-15T17:29:22.071Z,99627
2018-05-15T17:31:48.157Z,99624
2018-05-15T17:34:14.978Z,99628
2018-05-15T17:36:41.080Z,99617
2018-05-15T17:39:07.161Z,99625
2018-05-15T17:41:33.990Z,99636
2018-05-15T17:44:00.819Z,99627
2018-05-15T17:46:26.917Z,99629
2018-05-15T17:48:53.745Z,99631
2018-05-15T17:51:19.833Z,99624
2018-05-15T17:53:46.658Z,99636
2018-05-15T17:56:12.771Z,99628
2018-05-15T17:58:38.870Z,99633
2018-05-15T18:01:04.997Z,99638
2018-05-15T18:03:31.093Z,99638
2018-05-15T18:05:57.180Z,99637
2018-05-15T18:08:24.280Z,99636
2018-05-15T18:10:51.111Z,99636
2018-05-15T18:13:17.232Z,99635
2018-05-15T18:15:46.966Z,99639
2018-05-15T18:18:13.057Z,99634
2018-05-15T18:20:39.924Z,99633
2018-05-15T18:23:06.046Z,99630
2018-05-15T18:25:32.153Z,99628
2018-05-15T18:27:58.999Z,99635
2018-05-15T18:30:25.854Z,99639
2018-05-15T18:32:52.050Z,99643
2018-05-15T18:35:51.244Z,99642
2018-05-15T18:38:36.118Z,99639
2018-05-15T18:41:02.222Z,99647
2018-05-15T18:43:28.405Z,99645
2018-05-15T18:45:55.236Z,99648
2018-05-15T18:48:22.069Z,99650
2018-05-15T18:50:48.175Z,99655
2018-05-15T18:53:14.274Z,99657
2018-05-15T18:55:40.381Z,99656
2018-05-15T18:58:06.494Z,99663
2018-05-15T19:00:33.330Z,99669
2018-05-15T19:03:00.172Z,99676
2018-05-15T19:05:27.018Z,99671
2018-05-15T19:07:53.858Z,99673
2018-05-15T19:10:20.715Z,99668
2018-05-15T19:12:46.812Z,99670
2018-05-15T19:15:12.914Z,99675
2018-05-15T19:17:42.474Z,99675
2018-05-15T19:20:08.594Z,99671
2018-05-15T19:22:35.429Z,99662
2018-05-15T19:25:02.281Z,99663
2018-05-15T19:27:28.378Z,99660
2018-05-15T19:29:54.479Z,99660
2018-05-15T19:32:26.829Z,99667
2018-05-15T19:34:54.725Z,99663
2018-05-15T19:37:20.827Z,99665
2018-05-15T19:39:46.926Z,99665
2018-05-15T19:42:13.021Z,99677
2018-05-15T19:44:39.163Z,99665
2018-05-15T19:47:05.233Z,99663
2018-05-15T19:49:31.329Z,99665
2018-05-15T19:51:57.440Z,99666
2018-05-15T19:54:24.286Z,99665
2018-05-15T19:56:51.126Z,99668
2018-05-15T19:59:17.978Z,99667
2018-05-15T20:01:44.838Z,99673
2018-05-15T20:04:11.670Z,99667
2018-05-15T20:06:38.494Z,99660
2018-05-15T20:09:05.372Z,99658
2018-05-15T20:11:32.193Z,99664
2018-05-15T20:13:59.033Z,99655
2018-05-15T20:16:25.870Z,99667
2018-05-15T20:18:52.798Z,99659
2018-05-15T20:21:19.598Z,99657
2018-05-15T20:23:45.798Z,99659
2018-05-15T20:26:44.543Z,99658
2018-05-15T20:29:10.660Z,99660
2018-05-15T20:31:36.757Z,99656
2018-05-15T20:34:02.845Z,99655
2018-05-15T20:36:28.932Z,99659
2018-05-15T20:38:55.028Z,99661
2018-05-15T20:41:21.105Z,99655
2018-05-15T20:43:47.194Z,99659
2018-05-15T20:46:13.278Z,99664
2018-05-15T20:48:39.376Z,99657
2018-05-15T20:51:05.466Z,99671
2018-05-15T20:53:31.561Z,99666
2018-05-15T20:55:58.406Z,99665
2018-05-15T20:58:25.254Z,99672
2018-05-15T21:00:52.771Z,99664
2018-05-15T21:12:32.970Z,99683
2018-05-15T21:14:59.130Z,99680
2018-05-15T21:17:46.077Z,99676
2018-05-15T21:23:21.283Z,99671
2018-05-15T21:25:47.486Z,99662
2018-05-15T21:31:36.464Z,99661
2018-05-15T21:34:02.558Z,99672
2018-05-15T21:36:29.410Z,99669
2018-05-15T21:41:58.450Z,99666
2018-05-15T21:44:24.561Z,99673
2018-05-15T21:46:51.400Z,99669
2018-05-15T21:49:18.238Z,99677
2018-05-15T21:51:45.082Z,99681
2018-05-15T21:54:11.925Z,99681
2018-05-15T21:56:50.899Z,99670
2018-05-15T21:59:16.990Z,99682
2018-05-15T22:01:54.001Z,99688
2018-05-15T22:04:32.586Z,99697
2018-05-15T22:07:31.217Z,99685
2018-05-15T22:16:18.906Z,99685
2018-05-15T22:19:03.754Z,99693
2018-05-15T22:21:48.569Z,99685
2018-05-15T22:24:22.335Z,99685
2018-05-15T22:26:48.430Z,99691
2018-05-15T22:29:14.516Z,99696
2018-05-15T22:31:40.607Z,99685
2018-05-15T22:34:06.693Z,99690
2018-05-15T22:36:32.786Z,99685
2018-05-15T22:38:58.874Z,99682
2018-05-15T22:41:24.981Z,99690
2018-05-15T22:43:51.068Z,99696
2018-05-15T22:46:17.754Z,99695
2018-05-15T22:48:43.839Z,99695
2018-05-15T22:51:09.924Z,99704
2018-05-15T22:53:36.017Z,99701
2018-05-15T22:56:03.497Z,99705
2018-05-15T22:58:29.603Z,99699
2018-05-15T23:00:55.702Z,99691
2018-05-15T23:03:22.529Z,99688
2018-05-15T23:05:48.623Z,99690
2018-05-15T23:08:16.170Z,99692
2018-05-15T23:10:42.311Z,99698
2018-05-15T23:13:09.153Z,99694
2018-05-15T23:15:35.253Z,99692
2018-05-15T23:18:01.381Z,99694
2018-05-15T23:20:27.487Z,99687
2018-05-15T23:22:54.335Z,99690
2018-05-15T23:25:20.421Z,99695
2018-05-15T23:27:46.509Z,99684
2018-05-15T23:30:12.613Z,99694
2018-05-15T23:32:38.742Z,99689
2018-05-15T23:35:04.840Z,99688
2018-05-15T23:37:30.933Z,99682
2018-05-15T23:39:57.776Z,99691
2018-05-15T23:42:23.886Z,99695
2018-05-15T23:44:49.984Z,99684
2018-05-15T23:47:16.860Z,99689
2018-05-15T23:49:42.953Z,99696
2018-05-15T23:52:09.066Z,99687
2018-05-15T23:54:35.905Z,99694
2018-05-15T23:57:02.752Z,99683
2018-05-15T23:59:29.589Z,99682
